Moon-watcher — WDF3520 — position and weather

sailwx.info

Track history (hours):
 
Tides and Currents Weather Stations Pressure Air Temp Water Temp Dewpoint Dewpoint Depression Visibility Wind Speed Wind Dir Waves Ship Positions

Moon-watcher

Owner: Loughridge, Mark, Westport, CT. More information available from US FCC via Universal Licensing System and Coast Guard Vessel Documentation Center.

Last reported at 2018-May-03 22:01 UTC. Time now 2018-Jun-20 09:38 UTC.
Position N 26°01' W 080°07'.
Warning: this ship's position is 47 days out of date.

Length 14 m.

Type: Pleasure craft. MMSI: 367440870.

Date/timePositionNaut miles runAvg speedWind from/ knotsBaromVisibWave heightAir tempDewpointWater temp
2018-May-03 22:01N 26°01' W 080°07'0 5.5
2018-May-03 22:00N 26°01' W 080°07'0 0.2
2018-May-03 21:29N 26°01' W 080°07'0 0.0
2018-May-03 20:59N 26°01' W 080°07'0 0.0
2018-May-03 20:26N 26°01' W 080°07'0 0.2
2018-May-03 20:00N 26°01' W 080°07'0 0.2
2018-May-03 19:30N 26°01' W 080°07'0 0.3
2018-May-03 19:00N 26°01' W 080°07'0 0.3
2018-May-03 18:29N 26°01' W 080°07'0 0.5
2018-May-03 18:01N 26°01' W 080°07'5 9.8
2018-May-03 17:30N 25°56' W 080°08'2 2.5
2018-May-03 16:49N 25°54' W 080°08'310.0
2018-May-03 16:30N 25°51' W 080°09'0 0.4
2018-May-03 15:55N 25°51' W 080°09'4 8.6
2018-May-03 15:30N 25°47' W 080°09'1 2.2
2018-May-03 14:59N 25°46' W 080°08'0 0.0
2018-May-03 14:30N 25°46' W 080°08'0 0.0
2018-May-01 22:27N 25°46' W 080°08'3 6.5
2018-May-01 22:00N 25°46' W 080°12'1 1.6
2018-May-01 21:30N 25°47' W 080°11'1 2.1
2018-May-01 21:00N 25°47' W 080°11'2 3.3
2018-May-01 20:30N 25°46' W 080°09'1 1.8
2018-May-01 19:59N 25°46' W 080°09'0 0.7
2018-May-01 19:30N 25°46' W 080°09'2 0.0
2018-Apr-29 19:45N 25°45' W 080°11'311.2
2018-Apr-29 19:30N 25°43' W 080°12'4 4.4
2018-Apr-29 18:40N 25°41' W 080°15'319.5
2018-Apr-29 18:30N 25°43' W 080°13'510.8
2018-Apr-29 18:00N 25°46' W 080°08'0 0.0
2018-Apr-29 04:08N 25°46' W 080°08'0 0.0
2018-Apr-29 03:59N 25°46' W 080°08'0 0.0
2018-Apr-29 03:23N 25°46' W 080°08'0 0.0
2018-Apr-29 02:59N 25°46' W 080°08'0 0.0
2018-Apr-29 02:29N 25°46' W 080°08'1 1.6
2018-Apr-29 02:00N 25°46' W 080°09'3 5.0
2018-Apr-29 01:27N 25°46' W 080°12'1 1.3
2018-Apr-29 00:59N 25°47' W 080°12'0 0.0
2018-Apr-29 00:26N 25°47' W 080°12'0 0.0
2018-Apr-28 23:59N 25°47' W 080°12'0 0.0
2018-Apr-28 23:23N 25°47' W 080°12'0 0.0
2018-Apr-28 22:53N 25°47' W 080°12'2 4.0
2018-Apr-28 22:30N 25°46' W 080°11'4 7.8
2018-Apr-28 21:56N 25°41' W 080°10'3 6.2
2018-Apr-28 21:30N 25°43' W 080°12'3 6.3
2018-Apr-28 20:58N 25°46' W 080°10'1 1.4
2018-Apr-28 20:29N 25°46' W 080°09'1 1.4
2018-Apr-28 19:56N 25°46' W 080°08'3 0.1
2018-Apr-27 21:58N 25°46' W 080°12'0 0.0
2018-Apr-27 21:28N 25°46' W 080°12'3 6.2
2018-Apr-27 21:00N 25°48' W 080°09'3 6.8
2018-Apr-27 20:30N 25°51' W 080°09'3 5.7
2018-Apr-27 19:59N 25°54' W 080°08'1 1.2
2018-Apr-27 19:30N 25°54' W 080°08'0 0.0
2018-Apr-27 18:57N 25°54' W 080°08'0 0.0
2018-Apr-27 18:16N 25°54' W 080°08'0 0.8
2018-Apr-27 17:52N 25°54' W 080°08'411.0
2018-Apr-27 17:30N 25°50' W 080°08'4 7.3
2018-Apr-27 17:00N 25°47' W 080°11'2 4.9
2018-Apr-27 16:30N 25°46' W 080°08'0 0.4
2018-Apr-27 15:59N 25°46' W 080°08'0 0.3
2018-Apr-27 15:30N 25°46' W 080°08'0 0.3
2018-Apr-27 14:59N 25°46' W 080°08'0 0.0
2018-Apr-27 14:29N 25°46' W 080°08'0 0.0
2018-Apr-26 01:54N 25°46' W 080°08'0 0.0
2018-Apr-26 01:30N 25°46' W 080°08'2 3.3
2018-Apr-26 01:00N 25°46' W 080°10'2 3.2
2018-Apr-26 00:26N 25°48' W 080°09'0 0.0
2018-Apr-25 23:59N 25°48' W 080°09'0 0.0
2018-Apr-25 23:29N 25°48' W 080°09'0 0.1
2018-Apr-25 23:00N 25°48' W 080°09'0 0.5
2018-Apr-25 22:29N 25°47' W 080°09'1 1.1
2018-Apr-25 22:00N 25°47' W 080°10'1 2.1
2018-Apr-25 21:30N 25°46' W 080°10'2 3.5
2018-Apr-25 21:00N 25°46' W 080°09'1 1.5
2018-Apr-25 20:28N 25°46' W 080°08'  
Track history (hours):
 
Tides and Currents Weather Stations Pressure Air Temp Water Temp Dewpoint Dewpoint Depression Visibility Wind Speed Wind Dir Waves Ship Positions

Moon-watcher

Owner: Loughridge, Mark, Westport, CT. More information available from US FCC via Universal Licensing System and Coast Guard Vessel Documentation Center.

Last reported at 2018-May-03 22:01 UTC. Time now 2018-Jun-20 09:38 UTC.
Position N 26°01' W 080°07'.
Warning: this ship's position is 47 days out of date.

Length 14 m.

Type: Pleasure craft. MMSI: 367440870.

Date/timePositionNaut miles runAvg speedWind from/ knotsBaromVisibWave heightAir tempDewpointWater temp
2018-May-03 22:01N 26°01' W 080°07'0 5.5
2018-May-03 22:00N 26°01' W 080°07'0 0.2
2018-May-03 21:29N 26°01' W 080°07'0 0.0
2018-May-03 20:59N 26°01' W 080°07'0 0.0
2018-May-03 20:26N 26°01' W 080°07'0 0.2
2018-May-03 20:00N 26°01' W 080°07'0 0.2
2018-May-03 19:30N 26°01' W 080°07'0 0.3
2018-May-03 19:00N 26°01' W 080°07'0 0.3
2018-May-03 18:29N 26°01' W 080°07'0 0.5
2018-May-03 18:01N 26°01' W 080°07'5 9.8
2018-May-03 17:30N 25°56' W 080°08'2 2.5
2018-May-03 16:49N 25°54' W 080°08'310.0
2018-May-03 16:30N 25°51' W 080°09'0 0.4
2018-May-03 15:55N 25°51' W 080°09'4 8.6
2018-May-03 15:30N 25°47' W 080°09'1 2.2
2018-May-03 14:59N 25°46' W 080°08'0 0.0
2018-May-03 14:30N 25°46' W 080°08'0 0.0
2018-May-01 22:27N 25°46' W 080°08'3 6.5
2018-May-01 22:00N 25°46' W 080°12'1 1.6
2018-May-01 21:30N 25°47' W 080°11'1 2.1
2018-May-01 21:00N 25°47' W 080°11'2 3.3
2018-May-01 20:30N 25°46' W 080°09'1 1.8
2018-May-01 19:59N 25°46' W 080°09'0 0.7
2018-May-01 19:30N 25°46' W 080°09'2 0.0
2018-Apr-29 19:45N 25°45' W 080°11'311.2
2018-Apr-29 19:30N 25°43' W 080°12'4 4.4
2018-Apr-29 18:40N 25°41' W 080°15'319.5
2018-Apr-29 18:30N 25°43' W 080°13'510.8
2018-Apr-29 18:00N 25°46' W 080°08'0 0.0
2018-Apr-29 04:08N 25°46' W 080°08'0 0.0
2018-Apr-29 03:59N 25°46' W 080°08'0 0.0
2018-Apr-29 03:23N 25°46' W 080°08'0 0.0
2018-Apr-29 02:59N 25°46' W 080°08'0 0.0
2018-Apr-29 02:29N 25°46' W 080°08'1 1.6
2018-Apr-29 02:00N 25°46' W 080°09'3 5.0
2018-Apr-29 01:27N 25°46' W 080°12'1 1.3
2018-Apr-29 00:59N 25°47' W 080°12'0 0.0
2018-Apr-29 00:26N 25°47' W 080°12'0 0.0
2018-Apr-28 23:59N 25°47' W 080°12'0 0.0
2018-Apr-28 23:23N 25°47' W 080°12'0 0.0
2018-Apr-28 22:53N 25°47' W 080°12'2 4.0
2018-Apr-28 22:30N 25°46' W 080°11'4 7.8
2018-Apr-28 21:56N 25°41' W 080°10'3 6.2
2018-Apr-28 21:30N 25°43' W 080°12'3 6.3
2018-Apr-28 20:58N 25°46' W 080°10'1 1.4
2018-Apr-28 20:29N 25°46' W 080°09'1 1.4
2018-Apr-28 19:56N 25°46' W 080°08'3 0.1
2018-Apr-27 21:58N 25°46' W 080°12'0 0.0
2018-Apr-27 21:28N 25°46' W 080°12'3 6.2
2018-Apr-27 21:00N 25°48' W 080°09'3 6.8
2018-Apr-27 20:30N 25°51' W 080°09'3 5.7
2018-Apr-27 19:59N 25°54' W 080°08'1 1.2
2018-Apr-27 19:30N 25°54' W 080°08'0 0.0
2018-Apr-27 18:57N 25°54' W 080°08'0 0.0
2018-Apr-27 18:16N 25°54' W 080°08'0 0.8
2018-Apr-27 17:52N 25°54' W 080°08'411.0
2018-Apr-27 17:30N 25°50' W 080°08'4 7.3
2018-Apr-27 17:00N 25°47' W 080°11'2 4.9
2018-Apr-27 16:30N 25°46' W 080°08'0 0.4
2018-Apr-27 15:59N 25°46' W 080°08'0 0.3
2018-Apr-27 15:30N 25°46' W 080°08'0 0.3
2018-Apr-27 14:59N 25°46' W 080°08'0 0.0
2018-Apr-27 14:29N 25°46' W 080°08'0 0.0
2018-Apr-26 01:54N 25°46' W 080°08'0 0.0
2018-Apr-26 01:30N 25°46' W 080°08'2 3.3
2018-Apr-26 01:00N 25°46' W 080°10'2 3.2
2018-Apr-26 00:26N 25°48' W 080°09'0 0.0
2018-Apr-25 23:59N 25°48' W 080°09'0 0.0
2018-Apr-25 23:29N 25°48' W 080°09'0 0.1
2018-Apr-25 23:00N 25°48' W 080°09'0 0.5
2018-Apr-25 22:29N 25°47' W 080°09'1 1.1
2018-Apr-25 22:00N 25°47' W 080°10'1 2.1
2018-Apr-25 21:30N 25°46' W 080°10'2 3.5
2018-Apr-25 21:00N 25°46' W 080°09'1 1.5
2018-Apr-25 20:28N 25°46' W 080°08'  

Dump ship's entire track history